sensor_id;sensor_type;location;lat;lon;timestamp;P1;durP1;ratioP1;P2;durP2;ratioP2
665;SDS011;315;48.738;9.126;2023-03-12T00:00:39;8.10;;;6.20;;
665;SDS011;315;48.738;9.126;2023-03-12T00:03:05;13.00;;;6.30;;
665;SDS011;315;48.738;9.126;2023-03-12T00:05:31;13.47;;;5.87;;
665;SDS011;315;48.738;9.126;2023-03-12T00:07:56;6.60;;;6.00;;
665;SDS011;315;48.738;9.126;2023-03-12T00:10:24;7.67;;;5.00;;
665;SDS011;315;48.738;9.126;2023-03-12T00:12:50;10.53;;;6.87;;
665;SDS011;315;48.738;9.126;2023-03-12T00:15:16;15.83;;;7.70;;
665;SDS011;315;48.738;9.126;2023-03-12T00:17:42;7.93;;;5.63;;
665;SDS011;315;48.738;9.126;2023-03-12T00:20:07;11.17;;;6.30;;
665;SDS011;315;48.738;9.126;2023-03-12T00:22:34;8.90;;;5.73;;
665;SDS011;315;48.738;9.126;2023-03-12T00:24:59;10.87;;;6.80;;
665;SDS011;315;48.738;9.126;2023-03-12T00:27:25;7.93;;;5.47;;
665;SDS011;315;48.738;9.126;2023-03-12T00:29:51;13.13;;;6.40;;
665;SDS011;315;48.738;9.126;2023-03-12T00:32:17;10.33;;;7.47;;
665;SDS011;315;48.738;9.126;2023-03-12T00:34:43;13.30;;;7.30;;
665;SDS011;315;48.738;9.126;2023-03-12T00:37:08;14.73;;;8.30;;
665;SDS011;315;48.738;9.126;2023-03-12T00:39:34;9.00;;;7.60;;
665;SDS011;315;48.738;9.126;2023-03-12T00:42:00;11.93;;;6.87;;
665;SDS011;315;48.738;9.126;2023-03-12T00:44:26;15.43;;;7.70;;
665;SDS011;315;48.738;9.126;2023-03-12T00:46:51;10.43;;;6.20;;
665;SDS011;315;48.738;9.126;2023-03-12T00:49:17;10.57;;;7.50;;
665;SDS011;315;48.738;9.126;2023-03-12T00:51:42;11.70;;;6.70;;
665;SDS011;315;48.738;9.126;2023-03-12T00:54:08;11.87;;;6.50;;
665;SDS011;315;48.738;9.126;2023-03-12T00:56:34;10.37;;;6.17;;
665;SDS011;315;48.738;9.126;2023-03-12T00:58:59;9.40;;;6.00;;
665;SDS011;315;48.738;9.126;2023-03-12T01:01:25;12.77;;;7.40;;
665;SDS011;315;48.738;9.126;2023-03-12T01:03:51;7.63;;;5.93;;
665;SDS011;315;48.738;9.126;2023-03-12T01:06:17;10.87;;;6.73;;
665;SDS011;315;48.738;9.126;2023-03-12T01:08:43;6.07;;;4.90;;
665;SDS011;315;48.738;9.126;2023-03-12T01:11:16;6.13;;;4.60;;
665;SDS011;315;48.738;9.126;2023-03-12T01:13:42;10.30;;;5.60;;
665;SDS011;315;48.738;9.126;2023-03-12T01:16:08;6.47;;;5.70;;
665;SDS011;315;48.738;9.126;2023-03-12T01:18:34;6.30;;;5.67;;
665;SDS011;315;48.738;9.126;2023-03-12T01:21:00;9.47;;;6.13;;
665;SDS011;315;48.738;9.126;2023-03-12T01:23:27;9.90;;;6.03;;
665;SDS011;315;48.738;9.126;2023-03-12T01:25:52;7.60;;;4.70;;
665;SDS011;315;48.738;9.126;2023-03-12T01:28:19;10.57;;;4.80;;
665;SDS011;315;48.738;9.126;2023-03-12T01:30:46;8.57;;;5.37;;
665;SDS011;315;48.738;9.126;2023-03-12T01:33:12;8.00;;;4.93;;
665;SDS011;315;48.738;9.126;2023-03-12T01:35:39;5.90;;;5.10;;
665;SDS011;315;48.738;9.126;2023-03-12T01:38:10;7.63;;;5.13;;
665;SDS011;315;48.738;9.126;2023-03-12T01:40:38;7.50;;;5.07;;
665;SDS011;315;48.738;9.126;2023-03-12T01:43:24;5.73;;;5.13;;
665;SDS011;315;48.738;9.126;2023-03-12T01:48:47;7.23;;;4.97;;
665;SDS011;315;48.738;9.126;2023-03-12T01:51:17;12.10;;;5.73;;
665;SDS011;315;48.738;9.126;2023-03-12T01:53:46;7.60;;;4.87;;
665;SDS011;315;48.738;9.126;2023-03-12T01:56:15;6.77;;;5.10;;
665;SDS011;315;48.738;9.126;2023-03-12T01:58:43;5.50;;;4.50;;
665;SDS011;315;48.738;9.126;2023-03-12T02:01:16;6.90;;;5.00;;
665;SDS011;315;48.738;9.126;2023-03-12T02:03:44;6.40;;;4.60;;
665;SDS011;315;48.738;9.126;2023-03-12T02:06:12;7.87;;;5.07;;
665;SDS011;315;48.738;9.126;2023-03-12T02:08:40;8.30;;;6.07;;
665;SDS011;315;48.738;9.126;2023-03-12T02:11:08;5.93;;;5.40;;
665;SDS011;315;48.738;9.126;2023-03-12T02:13:34;7.47;;;5.60;;
665;SDS011;315;48.738;9.126;2023-03-12T02:16:00;7.77;;;5.40;;
665;SDS011;315;48.738;9.126;2023-03-12T02:18:26;8.73;;;5.00;;
665;SDS011;315;48.738;9.126;2023-03-12T02:21:00;8.03;;;6.00;;
665;SDS011;315;48.738;9.126;2023-03-12T02:26:11;9.20;;;5.40;;
665;SDS011;315;48.738;9.126;2023-03-12T02:28:38;9.80;;;6.10;;
665;SDS011;315;48.738;9.126;2023-03-12T02:31:08;9.10;;;5.50;;
665;SDS011;315;48.738;9.126;2023-03-12T02:33:36;6.90;;;5.50;;
665;SDS011;315;48.738;9.126;2023-03-12T02:36:01;8.00;;;5.40;;
665;SDS011;315;48.738;9.126;2023-03-12T02:38:36;5.83;;;4.80;;
665;SDS011;315;48.738;9.126;2023-03-12T02:41:12;6.13;;;5.53;;
665;SDS011;315;48.738;9.126;2023-03-12T02:43:57;6.27;;;5.30;;
665;SDS011;315;48.738;9.126;2023-03-12T02:46:47;6.13;;;5.30;;
665;SDS011;315;48.738;9.126;2023-03-12T02:49:15;8.53;;;7.00;;
665;SDS011;315;48.738;9.126;2023-03-12T02:51:43;6.10;;;5.50;;
665;SDS011;315;48.738;9.126;2023-03-12T02:54:09;6.50;;;5.60;;
665;SDS011;315;48.738;9.126;2023-03-12T02:56:36;8.93;;;5.70;;
665;SDS011;315;48.738;9.126;2023-03-12T02:59:01;6.33;;;5.20;;
665;SDS011;315;48.738;9.126;2023-03-12T03:01:28;8.57;;;5.90;;
665;SDS011;315;48.738;9.126;2023-03-12T03:03:53;6.57;;;5.97;;
665;SDS011;315;48.738;9.126;2023-03-12T03:06:19;8.40;;;5.73;;
665;SDS011;315;48.738;9.126;2023-03-12T03:08:45;7.77;;;6.53;;
665;SDS011;315;48.738;9.126;2023-03-12T03:11:11;6.70;;;4.87;;
665;SDS011;315;48.738;9.126;2023-03-12T03:13:37;7.73;;;5.80;;
665;SDS011;315;48.738;9.126;2023-03-12T03:16:02;6.03;;;5.43;;
665;SDS011;315;48.738;9.126;2023-03-12T03:18:28;6.83;;;4.90;;
665;SDS011;315;48.738;9.126;2023-03-12T03:20:59;6.93;;;6.00;;
665;SDS011;315;48.738;9.126;2023-03-12T03:23:26;5.77;;;5.03;;
665;SDS011;315;48.738;9.126;2023-03-12T03:25:51;6.50;;;5.33;;
665;SDS011;315;48.738;9.126;2023-03-12T03:28:18;7.17;;;5.90;;
665;SDS011;315;48.738;9.126;2023-03-12T03:30:44;7.63;;;5.60;;
665;SDS011;315;48.738;9.126;2023-03-12T03:33:10;9.53;;;5.37;;
665;SDS011;315;48.738;9.126;2023-03-12T03:35:36;8.33;;;4.97;;
665;SDS011;315;48.738;9.126;2023-03-12T03:38:02;8.10;;;5.23;;
665;SDS011;315;48.738;9.126;2023-03-12T03:40:28;9.13;;;4.97;;
665;SDS011;315;48.738;9.126;2023-03-12T03:42:53;11.10;;;5.90;;
665;SDS011;315;48.738;9.126;2023-03-12T03:45:19;10.13;;;5.70;;
665;SDS011;315;48.738;9.126;2023-03-12T03:47:45;5.80;;;5.10;;
665;SDS011;315;48.738;9.126;2023-03-12T03:50:10;5.40;;;4.83;;
665;SDS011;315;48.738;9.126;2023-03-12T03:52:36;6.10;;;5.20;;
665;SDS011;315;48.738;9.126;2023-03-12T03:55:02;6.57;;;5.50;;
665;SDS011;315;48.738;9.126;2023-03-12T03:57:28;6.80;;;6.07;;
665;SDS011;315;48.738;9.126;2023-03-12T03:59:53;6.73;;;4.83;;
665;SDS011;315;48.738;9.126;2023-03-12T04:02:20;11.13;;;4.90;;
665;SDS011;315;48.738;9.126;2023-03-12T04:04:46;10.00;;;5.67;;
665;SDS011;315;48.738;9.126;2023-03-12T04:07:12;6.53;;;5.13;;
665;SDS011;315;48.738;9.126;2023-03-12T04:09:37;8.63;;;5.50;;
665;SDS011;315;48.738;9.126;2023-03-12T04:12:03;6.53;;;5.47;;
665;SDS011;315;48.738;9.126;2023-03-12T04:14:28;6.40;;;5.70;;
665;SDS011;315;48.738;9.126;2023-03-12T04:16:54;8.57;;;4.90;;
665;SDS011;315;48.738;9.126;2023-03-12T04:19:20;6.73;;;4.23;;
665;SDS011;315;48.738;9.126;2023-03-12T04:21:45;7.50;;;5.13;;
665;SDS011;315;48.738;9.126;2023-03-12T04:24:14;6.60;;;5.10;;
665;SDS011;315;48.738;9.126;2023-03-12T04:26:41;8.30;;;5.00;;
665;SDS011;315;48.738;9.126;2023-03-12T04:29:07;6.50;;;5.63;;
665;SDS011;315;48.738;9.126;2023-03-12T04:31:32;5.67;;;4.90;;
665;SDS011;315;48.738;9.126;2023-03-12T04:33:58;8.00;;;5.30;;
665;SDS011;315;48.738;9.126;2023-03-12T04:36:24;6.50;;;5.13;;
665;SDS011;315;48.738;9.126;2023-03-12T04:38:49;6.70;;;5.10;;
665;SDS011;315;48.738;9.126;2023-03-12T04:41:15;5.23;;;4.77;;
665;SDS011;315;48.738;9.126;2023-03-12T04:43:41;7.03;;;4.70;;
665;SDS011;315;48.738;9.126;2023-03-12T04:46:07;6.50;;;5.37;;
665;SDS011;315;48.738;9.126;2023-03-12T04:48:33;5.87;;;5.20;;
665;SDS011;315;48.738;9.126;2023-03-12T04:50:59;7.63;;;5.43;;
665;SDS011;315;48.738;9.126;2023-03-12T04:53:26;8.33;;;4.83;;
665;SDS011;315;48.738;9.126;2023-03-12T04:55:51;7.37;;;4.47;;
665;SDS011;315;48.738;9.126;2023-03-12T04:58:17;5.47;;;4.97;;
665;SDS011;315;48.738;9.126;2023-03-12T05:00:43;5.73;;;5.00;;
665;SDS011;315;48.738;9.126;2023-03-12T05:03:09;5.60;;;4.73;;
665;SDS011;315;48.738;9.126;2023-03-12T05:05:35;7.97;;;4.90;;
665;SDS011;315;48.738;9.126;2023-03-12T05:08:01;7.80;;;5.00;;
665;SDS011;315;48.738;9.126;2023-03-12T05:10:27;8.93;;;5.67;;
665;SDS011;315;48.738;9.126;2023-03-12T05:12:53;10.90;;;5.50;;
665;SDS011;315;48.738;9.126;2023-03-12T05:15:19;8.27;;;5.07;;
665;SDS011;315;48.738;9.126;2023-03-12T05:17:44;8.57;;;5.70;;
665;SDS011;315;48.738;9.126;2023-03-12T05:20:10;6.63;;;4.73;;
665;SDS011;315;48.738;9.126;2023-03-12T05:22:36;8.23;;;5.70;;
665;SDS011;315;48.738;9.126;2023-03-12T05:25:02;9.60;;;5.07;;
665;SDS011;315;48.738;9.126;2023-03-12T05:27:28;5.70;;;4.80;;
665;SDS011;315;48.738;9.126;2023-03-12T05:29:54;7.97;;;5.40;;
665;SDS011;315;48.738;9.126;2023-03-12T05:32:20;8.30;;;6.47;;
665;SDS011;315;48.738;9.126;2023-03-12T05:34:45;10.80;;;5.60;;
665;SDS011;315;48.738;9.126;2023-03-12T05:37:11;8.33;;;6.00;;
665;SDS011;315;48.738;9.126;2023-03-12T05:39:36;7.40;;;5.90;;
665;SDS011;315;48.738;9.126;2023-03-12T05:42:02;13.50;;;6.00;;
665;SDS011;315;48.738;9.126;2023-03-12T05:44:28;7.03;;;6.43;;
665;SDS011;315;48.738;9.126;2023-03-12T05:46:54;8.20;;;6.43;;
665;SDS011;315;48.738;9.126;2023-03-12T05:49:20;6.47;;;5.87;;
665;SDS011;315;48.738;9.126;2023-03-12T05:51:46;11.70;;;6.37;;
665;SDS011;315;48.738;9.126;2023-03-12T05:54:13;12.03;;;6.50;;
665;SDS011;315;48.738;9.126;2023-03-12T05:56:40;8.03;;;6.73;;
665;SDS011;315;48.738;9.126;2023-03-12T05:59:05;7.03;;;5.60;;
665;SDS011;315;48.738;9.126;2023-03-12T06:01:31;11.33;;;7.33;;
665;SDS011;315;48.738;9.126;2023-03-12T06:03:57;7.83;;;6.13;;
665;SDS011;315;48.738;9.126;2023-03-12T06:06:23;7.70;;;6.53;;
665;SDS011;315;48.738;9.126;2023-03-12T06:08:49;8.40;;;6.83;;
665;SDS011;315;48.738;9.126;2023-03-12T06:11:15;11.70;;;6.30;;
665;SDS011;315;48.738;9.126;2023-03-12T06:13:41;10.20;;;6.03;;
665;SDS011;315;48.738;9.126;2023-03-12T06:16:08;6.83;;;6.10;;
665;SDS011;315;48.738;9.126;2023-03-12T06:18:39;8.87;;;6.90;;
665;SDS011;315;48.738;9.126;2023-03-12T06:21:09;9.20;;;6.63;;
665;SDS011;315;48.738;9.126;2023-03-12T06:23:36;7.17;;;6.47;;
665;SDS011;315;48.738;9.126;2023-03-12T06:26:02;7.70;;;7.00;;
665;SDS011;315;48.738;9.126;2023-03-12T06:28:29;8.43;;;6.00;;
665;SDS011;315;48.738;9.126;2023-03-12T06:30:54;7.73;;;6.83;;
665;SDS011;315;48.738;9.126;2023-03-12T06:33:20;10.63;;;6.97;;
665;SDS011;315;48.738;9.126;2023-03-12T06:35:46;10.90;;;8.27;;
665;SDS011;315;48.738;9.126;2023-03-12T06:38:11;11.17;;;6.43;;
665;SDS011;315;48.738;9.126;2023-03-12T06:40:37;15.87;;;7.73;;
665;SDS011;315;48.738;9.126;2023-03-12T06:43:03;7.47;;;6.60;;
665;SDS011;315;48.738;9.126;2023-03-12T06:45:28;8.37;;;7.60;;
665;SDS011;315;48.738;9.126;2023-03-12T06:47:54;7.33;;;6.60;;
665;SDS011;315;48.738;9.126;2023-03-12T06:50:19;11.53;;;7.43;;
665;SDS011;315;48.738;9.126;2023-03-12T06:52:45;9.03;;;7.00;;
665;SDS011;315;48.738;9.126;2023-03-12T06:55:10;9.30;;;7.80;;
665;SDS011;315;48.738;9.126;2023-03-12T06:57:36;8.80;;;7.90;;
665;SDS011;315;48.738;9.126;2023-03-12T07:00:02;9.43;;;8.50;;
665;SDS011;315;48.738;9.126;2023-03-12T07:02:29;13.43;;;9.40;;
665;SDS011;315;48.738;9.126;2023-03-12T07:04:54;10.27;;;9.27;;
665;SDS011;315;48.738;9.126;2023-03-12T07:07:20;12.00;;;9.83;;
665;SDS011;315;48.738;9.126;2023-03-12T07:09:45;11.10;;;9.87;;
665;SDS011;315;48.738;9.126;2023-03-12T07:12:11;12.60;;;10.47;;
665;SDS011;315;48.738;9.126;2023-03-12T07:14:36;12.37;;;11.07;;
665;SDS011;315;48.738;9.126;2023-03-12T07:17:02;13.50;;;10.27;;
665;SDS011;315;48.738;9.126;2023-03-12T07:19:28;13.20;;;11.80;;
665;SDS011;315;48.738;9.126;2023-03-12T07:21:56;12.00;;;10.50;;
665;SDS011;315;48.738;9.126;2023-03-12T07:24:22;14.77;;;11.53;;
665;SDS011;315;48.738;9.126;2023-03-12T07:26:48;15.10;;;12.47;;
665;SDS011;315;48.738;9.126;2023-03-12T07:29:13;12.03;;;10.83;;
665;SDS011;315;48.738;9.126;2023-03-12T07:31:38;12.70;;;11.50;;
665;SDS011;315;48.738;9.126;2023-03-12T07:34:04;12.40;;;11.10;;
665;SDS011;315;48.738;9.126;2023-03-12T07:36:30;14.87;;;11.23;;
665;SDS011;315;48.738;9.126;2023-03-12T07:38:56;12.23;;;11.10;;
665;SDS011;315;48.738;9.126;2023-03-12T07:41:22;16.10;;;11.30;;
665;SDS011;315;48.738;9.126;2023-03-12T07:43:47;14.63;;;11.97;;
665;SDS011;315;48.738;9.126;2023-03-12T07:46:13;19.00;;;12.87;;
665;SDS011;315;48.738;9.126;2023-03-12T07:48:38;24.03;;;12.00;;
665;SDS011;315;48.738;9.126;2023-03-12T07:51:04;13.30;;;11.13;;
665;SDS011;315;48.738;9.126;2023-03-12T07:53:30;10.83;;;9.73;;
665;SDS011;315;48.738;9.126;2023-03-12T07:55:55;14.50;;;10.37;;
665;SDS011;315;48.738;9.126;2023-03-12T07:58:21;11.57;;;9.37;;
665;SDS011;315;48.738;9.126;2023-03-12T08:00:47;16.30;;;11.53;;
665;SDS011;315;48.738;9.126;2023-03-12T08:03:12;16.23;;;9.73;;
665;SDS011;315;48.738;9.126;2023-03-12T08:05:38;15.83;;;9.97;;
665;SDS011;315;48.738;9.126;2023-03-12T08:08:04;14.00;;;9.10;;
665;SDS011;315;48.738;9.126;2023-03-12T08:10:30;9.87;;;7.90;;
665;SDS011;315;48.738;9.126;2023-03-12T08:12:55;13.90;;;10.17;;
665;SDS011;315;48.738;9.126;2023-03-12T08:15:21;11.17;;;7.70;;
665;SDS011;315;48.738;9.126;2023-03-12T08:17:46;9.37;;;8.00;;
665;SDS011;315;48.738;9.126;2023-03-12T08:20:12;11.67;;;7.77;;
665;SDS011;315;48.738;9.126;2023-03-12T08:22:38;6.50;;;6.00;;
665;SDS011;315;48.738;9.126;2023-03-12T08:25:04;7.77;;;7.00;;
665;SDS011;315;48.738;9.126;2023-03-12T08:27:30;8.47;;;6.33;;
665;SDS011;315;48.738;9.126;2023-03-12T08:29:56;8.47;;;7.53;;
665;SDS011;315;48.738;9.126;2023-03-12T08:32:21;13.40;;;7.00;;
665;SDS011;315;48.738;9.126;2023-03-12T08:34:47;11.77;;;8.30;;
665;SDS011;315;48.738;9.126;2023-03-12T08:37:12;11.80;;;7.30;;
665;SDS011;315;48.738;9.126;2023-03-12T08:39:38;7.97;;;7.17;;
665;SDS011;315;48.738;9.126;2023-03-12T08:42:03;8.47;;;6.50;;
665;SDS011;315;48.738;9.126;2023-03-12T08:44:29;7.30;;;6.60;;
665;SDS011;315;48.738;9.126;2023-03-12T08:46:55;10.90;;;7.70;;
665;SDS011;315;48.738;9.126;2023-03-12T08:49:21;8.47;;;7.07;;
665;SDS011;315;48.738;9.126;2023-03-12T08:51:47;7.07;;;6.40;;
665;SDS011;315;48.738;9.126;2023-03-12T08:54:15;8.30;;;7.27;;
665;SDS011;315;48.738;9.126;2023-03-12T08:56:41;10.90;;;8.30;;
665;SDS011;315;48.738;9.126;2023-03-12T08:59:08;8.60;;;6.53;;
665;SDS011;315;48.738;9.126;2023-03-12T09:01:34;8.33;;;6.70;;
665;SDS011;315;48.738;9.126;2023-03-12T09:03:59;9.07;;;7.57;;
665;SDS011;315;48.738;9.126;2023-03-12T09:06:26;8.60;;;7.70;;
665;SDS011;315;48.738;9.126;2023-03-12T09:08:52;9.20;;;7.20;;
665;SDS011;315;48.738;9.126;2023-03-12T09:11:17;8.73;;;7.80;;
665;SDS011;315;48.738;9.126;2023-03-12T09:13:43;8.83;;;7.93;;
665;SDS011;315;48.738;9.126;2023-03-12T09:16:09;8.47;;;7.47;;
665;SDS011;315;48.738;9.126;2023-03-12T09:18:34;9.87;;;7.73;;
665;SDS011;315;48.738;9.126;2023-03-12T09:21:00;9.10;;;8.17;;
665;SDS011;315;48.738;9.126;2023-03-12T09:23:26;10.33;;;7.97;;
665;SDS011;315;48.738;9.126;2023-03-12T09:25:51;10.83;;;8.47;;
665;SDS011;315;48.738;9.126;2023-03-12T09:28:17;10.37;;;8.07;;
665;SDS011;315;48.738;9.126;2023-03-12T09:30:43;10.77;;;9.07;;
665;SDS011;315;48.738;9.126;2023-03-12T09:33:09;10.60;;;8.43;;
665;SDS011;315;48.738;9.126;2023-03-12T09:35:35;8.70;;;7.57;;
665;SDS011;315;48.738;9.126;2023-03-12T09:38:01;12.43;;;7.67;;
665;SDS011;315;48.738;9.126;2023-03-12T09:40:28;7.77;;;6.70;;
665;SDS011;315;48.738;9.126;2023-03-12T09:43:00;6.93;;;5.90;;
665;SDS011;315;48.738;9.126;2023-03-12T09:45:34;8.63;;;6.23;;
665;SDS011;315;48.738;9.126;2023-03-12T09:48:11;13.57;;;10.33;;
665;SDS011;315;48.738;9.126;2023-03-12T09:50:45;8.30;;;4.80;;
665;SDS011;315;48.738;9.126;2023-03-12T09:53:20;4.60;;;4.20;;
665;SDS011;315;48.738;9.126;2023-03-12T09:55:53;4.97;;;4.57;;
665;SDS011;315;48.738;9.126;2023-03-12T09:58:22;5.80;;;4.30;;
665;SDS011;315;48.738;9.126;2023-03-12T10:00:54;5.30;;;3.70;;
665;SDS011;315;48.738;9.126;2023-03-12T10:03:55;5.20;;;3.73;;
665;SDS011;315;48.738;9.126;2023-03-12T10:06:38;4.67;;;3.50;;
665;SDS011;315;48.738;9.126;2023-03-12T10:09:15;7.97;;;3.83;;
665;SDS011;315;48.738;9.126;2023-03-12T10:14:26;4.67;;;4.03;;
665;SDS011;315;48.738;9.126;2023-03-12T10:19:53;7.30;;;3.10;;
665;SDS011;315;48.738;9.126;2023-03-12T10:22:28;3.37;;;3.07;;
665;SDS011;315;48.738;9.126;2023-03-12T10:25:21;3.70;;;2.90;;
665;SDS011;315;48.738;9.126;2023-03-12T10:27:52;2.70;;;2.40;;
665;SDS011;315;48.738;9.126;2023-03-12T10:30:23;2.67;;;2.47;;
665;SDS011;315;48.738;9.126;2023-03-12T10:32:52;3.33;;;2.83;;
665;SDS011;315;48.738;9.126;2023-03-12T10:35:22;2.50;;;2.00;;
665;SDS011;315;48.738;9.126;2023-03-12T10:37:55;2.80;;;2.60;;
665;SDS011;315;48.738;9.126;2023-03-12T10:40:27;2.60;;;2.40;;
665;SDS011;315;48.738;9.126;2023-03-12T10:42:58;4.90;;;2.90;;
665;SDS011;315;48.738;9.126;2023-03-12T10:45:33;6.80;;;3.20;;
665;SDS011;315;48.738;9.126;2023-03-12T10:48:04;4.37;;;2.90;;
665;SDS011;315;48.738;9.126;2023-03-12T10:50:33;4.13;;;2.50;;
665;SDS011;315;48.738;9.126;2023-03-12T10:53:23;3.90;;;3.50;;
665;SDS011;315;48.738;9.126;2023-03-12T10:56:08;3.40;;;3.13;;
665;SDS011;315;48.738;9.126;2023-03-12T10:58:43;4.97;;;3.70;;
665;SDS011;315;48.738;9.126;2023-03-12T11:01:33;2.40;;;2.20;;
665;SDS011;315;48.738;9.126;2023-03-12T11:07:02;3.17;;;2.50;;
665;SDS011;315;48.738;9.126;2023-03-12T11:09:28;3.03;;;2.73;;
665;SDS011;315;48.738;9.126;2023-03-12T11:11:55;3.27;;;3.07;;
665;SDS011;315;48.738;9.126;2023-03-12T11:14:22;2.10;;;1.90;;
665;SDS011;315;48.738;9.126;2023-03-12T11:16:49;2.40;;;2.20;;
665;SDS011;315;48.738;9.126;2023-03-12T11:19:32;3.03;;;2.10;;
665;SDS011;315;48.738;9.126;2023-03-12T11:22:01;2.20;;;2.00;;
665;SDS011;315;48.738;9.126;2023-03-12T11:24:29;1.40;;;1.30;;
665;SDS011;315;48.738;9.126;2023-03-12T11:26:58;2.50;;;1.50;;
665;SDS011;315;48.738;9.126;2023-03-12T11:29:43;1.80;;;1.40;;
665;SDS011;315;48.738;9.126;2023-03-12T11:32:16;1.40;;;1.30;;
665;SDS011;315;48.738;9.126;2023-03-12T11:34:43;1.37;;;1.10;;
665;SDS011;315;48.738;9.126;2023-03-12T11:42:48;3.17;;;1.57;;
665;SDS011;315;48.738;9.126;2023-03-12T11:45:28;1.60;;;1.50;;
665;SDS011;315;48.738;9.126;2023-03-12T11:48:09;1.70;;;1.23;;
665;SDS011;315;48.738;9.126;2023-03-12T11:50:42;1.60;;;1.50;;
665;SDS011;315;48.738;9.126;2023-03-12T12:07:31;1.90;;;1.30;;
665;SDS011;315;48.738;9.126;2023-03-12T12:18:50;3.17;;;1.70;;
665;SDS011;315;48.738;9.126;2023-03-12T12:27:24;4.20;;;2.50;;
665;SDS011;315;48.738;9.126;2023-03-12T12:32:51;4.83;;;2.30;;
665;SDS011;315;48.738;9.126;2023-03-12T12:35:42;1.50;;;1.40;;
665;SDS011;315;48.738;9.126;2023-03-12T12:38:13;3.93;;;1.90;;
665;SDS011;315;48.738;9.126;2023-03-12T12:41:07;2.53;;;2.33;;
665;SDS011;315;48.738;9.126;2023-03-12T12:43:43;3.57;;;2.47;;
665;SDS011;315;48.738;9.126;2023-03-12T12:46:16;4.70;;;2.40;;
665;SDS011;315;48.738;9.126;2023-03-12T12:48:49;3.63;;;2.27;;
665;SDS011;315;48.738;9.126;2023-03-12T12:51:18;4.23;;;2.13;;
665;SDS011;315;48.738;9.126;2023-03-12T12:53:55;3.00;;;2.20;;
665;SDS011;315;48.738;9.126;2023-03-12T13:01:45;2.63;;;2.20;;
665;SDS011;315;48.738;9.126;2023-03-12T13:04:13;2.10;;;1.30;;
665;SDS011;315;48.738;9.126;2023-03-12T13:07:44;3.13;;;1.67;;
665;SDS011;315;48.738;9.126;2023-03-12T13:12:19;4.77;;;2.10;;
665;SDS011;315;48.738;9.126;2023-03-12T13:14:48;4.67;;;2.00;;
665;SDS011;315;48.738;9.126;2023-03-12T13:19:51;4.50;;;3.33;;
665;SDS011;315;48.738;9.126;2023-03-12T13:22:40;5.37;;;2.93;;
665;SDS011;315;48.738;9.126;2023-03-12T13:28:00;2.03;;;1.80;;
665;SDS011;315;48.738;9.126;2023-03-12T13:30:49;5.73;;;2.37;;
665;SDS011;315;48.738;9.126;2023-03-12T13:33:18;3.30;;;2.17;;
665;SDS011;315;48.738;9.126;2023-03-12T13:38:36;5.90;;;2.00;;
665;SDS011;315;48.738;9.126;2023-03-12T13:41:28;4.70;;;2.27;;
665;SDS011;315;48.738;9.126;2023-03-12T13:44:21;8.60;;;2.70;;
665;SDS011;315;48.738;9.126;2023-03-12T13:49:36;4.03;;;2.70;;
665;SDS011;315;48.738;9.126;2023-03-12T13:55:06;3.87;;;2.37;;
665;SDS011;315;48.738;9.126;2023-03-12T13:57:46;2.57;;;1.80;;
665;SDS011;315;48.738;9.126;2023-03-12T14:00:17;5.23;;;1.70;;
665;SDS011;315;48.738;9.126;2023-03-12T14:03:03;2.90;;;1.67;;
665;SDS011;315;48.738;9.126;2023-03-12T14:05:31;3.37;;;1.77;;
665;SDS011;315;48.738;9.126;2023-03-12T14:08:52;3.40;;;2.00;;
665;SDS011;315;48.738;9.126;2023-03-12T14:19:13;1.50;;;1.30;;
665;SDS011;315;48.738;9.126;2023-03-12T14:21:42;2.50;;;1.80;;
665;SDS011;315;48.738;9.126;2023-03-12T14:26:53;5.23;;;2.27;;
665;SDS011;315;48.738;9.126;2023-03-12T14:29:24;3.37;;;1.20;;
665;SDS011;315;48.738;9.126;2023-03-12T14:31:59;2.77;;;2.20;;
665;SDS011;315;48.738;9.126;2023-03-12T14:34:32;1.63;;;1.40;;
665;SDS011;315;48.738;9.126;2023-03-12T14:37:09;4.30;;;1.70;;
665;SDS011;315;48.738;9.126;2023-03-12T14:42:23;3.67;;;1.00;;
665;SDS011;315;48.738;9.126;2023-03-12T14:45:14;3.90;;;1.13;;
665;SDS011;315;48.738;9.126;2023-03-12T14:47:51;2.33;;;1.43;;
665;SDS011;315;48.738;9.126;2023-03-12T14:50:20;6.17;;;1.57;;
665;SDS011;315;48.738;9.126;2023-03-12T14:52:48;3.33;;;1.57;;
665;SDS011;315;48.738;9.126;2023-03-12T14:55:15;1.50;;;1.40;;
665;SDS011;315;48.738;9.126;2023-03-12T14:57:43;1.60;;;1.10;;
665;SDS011;315;48.738;9.126;2023-03-12T15:00:19;2.53;;;1.20;;
665;SDS011;315;48.738;9.126;2023-03-12T15:02:49;2.90;;;1.43;;
665;SDS011;315;48.738;9.126;2023-03-12T15:05:17;2.00;;;1.60;;
665;SDS011;315;48.738;9.126;2023-03-12T15:07:44;5.40;;;1.60;;
665;SDS011;315;48.738;9.126;2023-03-12T15:10:24;1.90;;;1.70;;
665;SDS011;315;48.738;9.126;2023-03-12T15:12:53;2.83;;;1.60;;
665;SDS011;315;48.738;9.126;2023-03-12T15:18:02;8.73;;;3.43;;
665;SDS011;315;48.738;9.126;2023-03-12T15:20:35;5.60;;;2.90;;
665;SDS011;315;48.738;9.126;2023-03-12T15:23:01;6.63;;;2.40;;
665;SDS011;315;48.738;9.126;2023-03-12T15:25:28;2.90;;;1.83;;
665;SDS011;315;48.738;9.126;2023-03-12T15:28:04;2.80;;;2.20;;
665;SDS011;315;48.738;9.126;2023-03-12T15:30:39;5.40;;;2.30;;
665;SDS011;315;48.738;9.126;2023-03-12T15:33:20;4.30;;;2.00;;
665;SDS011;315;48.738;9.126;2023-03-12T15:36:01;3.77;;;2.10;;
665;SDS011;315;48.738;9.126;2023-03-12T15:38:49;4.17;;;2.17;;
665;SDS011;315;48.738;9.126;2023-03-12T15:44:11;5.20;;;2.63;;
665;SDS011;315;48.738;9.126;2023-03-12T15:46:46;7.57;;;3.60;;
665;SDS011;315;48.738;9.126;2023-03-12T15:49:21;4.00;;;2.30;;
665;SDS011;315;48.738;9.126;2023-03-12T15:51:58;5.23;;;2.70;;
665;SDS011;315;48.738;9.126;2023-03-12T15:55:05;6.50;;;3.27;;
665;SDS011;315;48.738;9.126;2023-03-12T15:57:49;5.20;;;2.13;;
665;SDS011;315;48.738;9.126;2023-03-12T16:00:18;7.83;;;2.60;;
665;SDS011;315;48.738;9.126;2023-03-12T16:02:52;5.40;;;1.83;;
665;SDS011;315;48.738;9.126;2023-03-12T16:05:26;10.53;;;2.80;;
665;SDS011;315;48.738;9.126;2023-03-12T16:08:11;4.87;;;2.57;;
665;SDS011;315;48.738;9.126;2023-03-12T16:10:50;6.33;;;2.50;;
665;SDS011;315;48.738;9.126;2023-03-12T16:13:18;7.70;;;2.60;;
665;SDS011;315;48.738;9.126;2023-03-12T16:15:46;7.50;;;2.40;;
665;SDS011;315;48.738;9.126;2023-03-12T16:18:13;6.50;;;2.47;;
665;SDS011;315;48.738;9.126;2023-03-12T16:20:41;4.70;;;1.77;;
665;SDS011;315;48.738;9.126;2023-03-12T16:23:07;11.90;;;2.93;;
665;SDS011;315;48.738;9.126;2023-03-12T16:25:32;7.63;;;3.03;;
665;SDS011;315;48.738;9.126;2023-03-12T16:27:59;6.30;;;2.80;;
665;SDS011;315;48.738;9.126;2023-03-12T16:30:31;5.50;;;2.27;;
665;SDS011;315;48.738;9.126;2023-03-12T16:32:58;8.10;;;3.67;;
665;SDS011;315;48.738;9.126;2023-03-12T16:35:25;10.43;;;2.97;;
665;SDS011;315;48.738;9.126;2023-03-12T16:37:52;8.67;;;3.20;;
665;SDS011;315;48.738;9.126;2023-03-12T16:40:18;7.00;;;2.60;;
665;SDS011;315;48.738;9.126;2023-03-12T16:42:45;7.90;;;3.77;;
665;SDS011;315;48.738;9.126;2023-03-12T16:45:13;9.70;;;2.40;;
665;SDS011;315;48.738;9.126;2023-03-12T16:47:40;8.47;;;2.77;;
665;SDS011;315;48.738;9.126;2023-03-12T16:50:14;6.50;;;2.87;;
665;SDS011;315;48.738;9.126;2023-03-12T16:52:44;6.27;;;2.83;;
665;SDS011;315;48.738;9.126;2023-03-12T16:55:16;5.83;;;2.53;;
665;SDS011;315;48.738;9.126;2023-03-12T16:57:52;4.70;;;2.87;;
665;SDS011;315;48.738;9.126;2023-03-12T17:00:21;4.27;;;2.30;;
665;SDS011;315;48.738;9.126;2023-03-12T17:02:48;7.47;;;2.37;;
665;SDS011;315;48.738;9.126;2023-03-12T17:05:16;5.77;;;2.37;;
665;SDS011;315;48.738;9.126;2023-03-12T17:07:42;10.03;;;4.60;;
665;SDS011;315;48.738;9.126;2023-03-12T17:10:08;7.83;;;2.93;;
665;SDS011;315;48.738;9.126;2023-03-12T17:12:36;5.80;;;4.60;;
665;SDS011;315;48.738;9.126;2023-03-12T17:15:04;8.50;;;2.40;;
665;SDS011;315;48.738;9.126;2023-03-12T17:17:37;7.23;;;2.27;;
665;SDS011;315;48.738;9.126;2023-03-12T17:20:03;4.10;;;2.30;;
665;SDS011;315;48.738;9.126;2023-03-12T17:22:32;9.03;;;2.80;;
665;SDS011;315;48.738;9.126;2023-03-12T17:24:57;8.30;;;3.13;;
665;SDS011;315;48.738;9.126;2023-03-12T17:27:23;8.37;;;2.70;;